createdAt,value
2023-05-14T00:02:28.305Z,83.39
2023-05-14T00:05:30.513Z,86.20
2023-05-14T00:08:32.547Z,84.84
2023-05-14T00:11:34.537Z,84.23
2023-05-14T00:14:36.620Z,85.58
2023-05-14T00:17:42.626Z,85.13
2023-05-14T00:20:44.766Z,83.78
2023-05-14T00:23:46.790Z,84.47
2023-05-14T00:26:48.803Z,84.84
2023-05-14T00:29:50.841Z,84.27
2023-05-14T00:32:54.267Z,84.23
2023-05-14T00:35:56.284Z,84.42
2023-05-14T00:38:58.336Z,85.11
2023-05-14T00:42:00.403Z,84.47
2023-05-14T00:45:02.582Z,83.58
2023-05-14T00:48:08.494Z,84.29
2023-05-14T00:51:11.058Z,84.34
2023-05-14T00:54:14.015Z,84.78
2023-05-14T00:57:16.114Z,82.78
2023-05-14T01:00:18.542Z,84.47
2023-05-14T01:03:22.201Z,84.61
2023-05-14T01:06:35.299Z,84.24
2023-05-14T01:09:44.646Z,83.71
2023-05-14T01:12:58.001Z,81.58
2023-05-14T01:16:01.092Z,81.11
2023-05-14T01:19:07.853Z,83.93
2023-05-14T01:22:12.109Z,82.60
2023-05-14T01:25:14.135Z,83.40
2023-05-14T01:28:20.655Z,82.52
2023-05-14T01:31:28.122Z,83.74
2023-05-14T01:34:31.517Z,80.18
2023-05-14T01:37:36.734Z,82.21
2023-05-14T01:40:44.249Z,80.53
2023-05-14T01:43:46.722Z,79.42
2023-05-14T01:46:48.767Z,79.07
2023-05-14T01:49:51.182Z,77.74
2023-05-14T01:52:56.844Z,81.71
2023-05-14T01:55:59.138Z,80.89
2023-05-14T01:59:02.742Z,78.37
2023-05-14T02:02:04.859Z,79.90
2023-05-14T02:05:07.954Z,81.19
2023-05-14T02:08:11.424Z,81.71
2023-05-14T02:11:13.470Z,81.93
2023-05-14T02:14:15.932Z,82.69
2023-05-14T02:17:18.152Z,79.98
2023-05-14T02:20:20.137Z,81.15
2023-05-14T02:23:34.108Z,79.76
2023-05-14T02:26:40.227Z,80.69
2023-05-14T02:29:42.426Z,82.21
2023-05-14T02:32:44.495Z,81.21
2023-05-14T02:35:46.641Z,79.78
2023-05-14T02:38:50.070Z,81.37
2023-05-14T02:41:52.146Z,81.75
2023-05-14T02:44:54.210Z,79.68
2023-05-14T02:47:59.122Z,79.99
2023-05-14T02:51:01.214Z,81.25
2023-05-14T02:54:04.875Z,81.11
2023-05-14T02:57:06.912Z,79.26
2023-05-14T03:00:10.158Z,79.53
2023-05-14T03:03:12.593Z,80.01
2023-05-14T03:06:15.009Z,81.76
2023-05-14T03:09:18.496Z,81.29
2023-05-14T03:12:21.279Z,82.04
2023-05-14T03:15:23.283Z,81.80
2023-05-14T03:18:25.569Z,80.81
2023-05-14T03:21:27.707Z,80.83
2023-05-14T03:24:31.707Z,82.71
2023-05-14T03:27:34.709Z,80.84
2023-05-14T03:30:36.989Z,79.48
2023-05-14T03:33:39.047Z,78.56
2023-05-14T03:36:41.054Z,80.92
2023-05-14T03:39:44.455Z,79.98
2023-05-14T03:42:46.488Z,81.02
2023-05-14T03:45:52.631Z,81.62
2023-05-14T03:48:54.760Z,81.80
2023-05-14T03:51:58.318Z,80.66
2023-05-14T03:55:01.784Z,80.21
2023-05-14T03:58:05.966Z,81.26
2023-05-14T04:01:07.919Z,82.84
2023-05-14T04:04:10.364Z,82.09
2023-05-14T04:07:12.473Z,81.31
2023-05-14T04:10:15.912Z,80.72
2023-05-14T04:13:21.046Z,79.20
2023-05-14T04:16:25.325Z,77.51
2023-05-14T04:19:27.393Z,77.32
2023-05-14T04:22:29.391Z,79.76
2023-05-14T04:25:32.832Z,80.15
2023-05-14T04:28:34.875Z,81.97
2023-05-14T04:31:36.961Z,82.34
2023-05-14T04:34:38.932Z,83.25
2023-05-14T04:37:41.581Z,78.87
2023-05-14T04:40:44.908Z,79.02
2023-05-14T04:43:49.931Z,78.37
2023-05-14T04:46:51.870Z,79.72
2023-05-14T04:49:53.859Z,79.47
2023-05-14T04:52:56.242Z,77.67
2023-05-14T04:55:59.618Z,78.60
2023-05-14T04:59:01.830Z,80.24
2023-05-14T05:02:04.039Z,80.58
2023-05-14T05:05:06.554Z,80.97
2023-05-14T05:08:11.298Z,79.71
2023-05-14T05:11:14.718Z,77.24
2023-05-14T05:14:16.855Z,78.23
2023-05-14T05:17:18.914Z,78.43
2023-05-14T05:20:21.218Z,76.97
2023-05-14T05:23:23.301Z,77.50
2023-05-14T05:26:27.355Z,79.43
2023-05-14T05:29:29.281Z,77.82
2023-05-14T05:32:31.764Z,77.05
2023-05-14T05:35:33.818Z,76.99
2023-05-14T05:38:35.803Z,78.84
2023-05-14T05:41:39.459Z,77.42
2023-05-14T05:44:41.532Z,76.05
2023-05-14T05:47:44.116Z,76.81
2023-05-14T05:50:49.253Z,77.75
2023-05-14T05:53:51.568Z,78.73
2023-05-14T05:56:55.040Z,80.05
2023-05-14T05:59:57.162Z,80.47
2023-05-14T06:02:59.227Z,77.86
2023-05-14T06:06:03.677Z,80.39
2023-05-14T06:09:07.113Z,78.09
2023-05-14T06:12:11.246Z,80.00
2023-05-14T06:15:13.417Z,81.25
2023-05-14T06:18:17.824Z,78.14
2023-05-14T06:21:20.060Z,77.79
2023-05-14T06:24:22.074Z,78.87
2023-05-14T06:27:25.722Z,82.04
2023-05-14T06:30:27.807Z,78.86
2023-05-14T06:33:31.158Z,78.56
2023-05-14T06:36:33.398Z,80.62
2023-05-14T06:39:35.659Z,76.50
2023-05-14T06:42:39.176Z,81.38
2023-05-14T06:45:41.222Z,79.26
2023-05-14T06:48:43.177Z,81.92
2023-05-14T06:51:45.819Z,80.69
2023-05-14T06:54:47.797Z,79.89
2023-05-14T06:57:51.344Z,82.67
2023-05-14T07:00:53.389Z,80.27
2023-05-14T07:03:55.642Z,78.85
2023-05-14T07:06:57.751Z,79.81
2023-05-14T07:09:59.690Z,79.85
2023-05-14T07:13:03.708Z,82.08
2023-05-14T07:16:06.820Z,79.33
2023-05-14T07:19:08.984Z,81.59
2023-05-14T07:22:11.065Z,78.45
2023-05-14T07:25:13.178Z,79.71
2023-05-14T07:28:16.571Z,81.01
2023-05-14T07:31:21.654Z,77.48
2023-05-14T07:34:23.768Z,79.59
2023-05-14T07:37:26.310Z,80.33
2023-05-14T07:40:28.245Z,80.78
2023-05-14T07:43:31.897Z,78.03
2023-05-14T07:46:33.860Z,76.97
2023-05-14T07:49:36.052Z,76.83
2023-05-14T07:52:37.982Z,77.94
2023-05-14T07:55:40.250Z,77.51
2023-05-14T07:58:44.149Z,78.17
2023-05-14T08:01:46.090Z,77.20
2023-05-14T08:04:48.128Z,82.83
2023-05-14T08:07:50.105Z,82.34
2023-05-14T08:10:52.059Z,80.71
2023-05-14T08:13:55.536Z,83.73
2023-05-14T08:16:57.540Z,83.30
2023-05-14T08:19:59.552Z,80.45
2023-05-14T08:23:01.705Z,80.45
2023-05-14T08:26:03.763Z,80.38
2023-05-14T08:29:09.282Z,79.87
2023-05-14T08:32:22.710Z,81.06
2023-05-14T08:35:29.140Z,77.52
2023-05-14T08:38:31.624Z,76.57
2023-05-14T08:41:34.621Z,76.82
2023-05-14T08:44:44.747Z,77.91
2023-05-14T08:47:51.879Z,76.89
2023-05-14T08:50:54.238Z,76.50
2023-05-14T08:53:59.272Z,77.50
2023-05-14T08:57:01.924Z,75.41
2023-05-14T09:00:13.550Z,75.22
2023-05-14T09:03:18.882Z,78.72
2023-05-14T09:06:21.680Z,80.17
2023-05-14T09:09:23.887Z,79.27
2023-05-14T09:12:26.383Z,79.83
2023-05-14T09:15:33.018Z,80.15
2023-05-14T09:18:36.728Z,79.55
2023-05-14T09:21:39.008Z,79.87
2023-05-14T09:24:41.575Z,81.65
2023-05-14T09:27:50.336Z,81.56
2023-05-14T09:30:53.798Z,82.38
2023-05-14T09:33:55.802Z,83.71
2023-05-14T09:37:01.557Z,82.69
2023-05-14T09:40:06.939Z,81.21
2023-05-14T09:43:12.213Z,83.13
2023-05-14T09:46:16.140Z,83.40
2023-05-14T09:49:18.568Z,82.58
2023-05-14T09:52:20.584Z,84.00
2023-05-14T09:55:23.421Z,83.80
2023-05-14T09:58:25.582Z,84.82
2023-05-14T10:01:29.768Z,84.92
2023-05-14T10:04:34.235Z,83.99
2023-05-14T10:07:41.780Z,85.58
2023-05-14T10:10:43.797Z,85.89
2023-05-14T10:13:50.285Z,88.28
2023-05-14T10:16:54.426Z,87.08
2023-05-14T10:19:59.172Z,87.99
2023-05-14T10:23:01.212Z,87.50
2023-05-14T10:26:05.309Z,89.90
2023-05-14T10:29:07.860Z,86.93
2023-05-14T10:32:13.258Z,87.87
2023-05-14T10:35:20.984Z,87.52
2023-05-14T10:38:27.229Z,86.54
2023-05-14T10:41:29.330Z,86.65
2023-05-14T10:44:33.332Z,87.65
2023-05-14T10:47:39.001Z,86.13
2023-05-14T10:50:43.239Z,86.92
2023-05-14T10:53:45.345Z,85.30
2023-05-14T10:56:47.356Z,87.12
2023-05-14T10:59:53.285Z,85.21
2023-05-14T11:02:57.821Z,86.32
2023-05-14T11:06:03.583Z,86.59
2023-05-14T11:09:06.583Z,86.31
2023-05-14T11:12:09.349Z,86.29
2023-05-14T11:15:13.501Z,87.00
2023-05-14T11:18:28.277Z,85.52
2023-05-14T11:21:31.985Z,85.78
2023-05-14T11:24:34.144Z,86.41
2023-05-14T11:27:37.979Z,86.55
2023-05-14T11:30:39.940Z,86.33
2023-05-14T11:33:43.456Z,87.97
2023-05-14T11:36:45.570Z,87.13
2023-05-14T11:39:49.466Z,88.00
2023-05-14T11:42:56.523Z,87.68
2023-05-14T11:45:58.523Z,88.33
2023-05-14T11:49:04.523Z,88.79
2023-05-14T11:52:09.136Z,89.22
2023-05-14T11:55:12.147Z,88.61
2023-05-14T11:58:14.306Z,89.66
2023-05-14T12:01:16.280Z,88.40
2023-05-14T12:04:22.866Z,90.28
2023-05-14T12:07:29.473Z,89.40
2023-05-14T12:10:42.105Z,90.13
2023-05-14T12:13:44.151Z,89.50
2023-05-14T12:16:47.286Z,88.76
2023-05-14T12:19:52.382Z,88.74
2023-05-14T12:22:54.485Z,88.36
2023-05-14T12:26:01.219Z,88.68
2023-05-14T12:29:04.525Z,87.90
2023-05-14T12:32:10.301Z,87.43
2023-05-14T12:35:13.668Z,87.99
2023-05-14T12:38:16.012Z,87.28
2023-05-14T12:41:18.105Z,89.77
2023-05-14T12:44:22.065Z,90.08
2023-05-14T12:47:27.077Z,88.69
2023-05-14T12:50:30.826Z,89.13
2023-05-14T12:53:35.334Z,90.63
2023-05-14T12:56:38.771Z,90.64
2023-05-14T12:59:41.217Z,89.68
2023-05-14T13:02:44.054Z,90.01
2023-05-14T13:05:47.679Z,89.69
2023-05-14T13:08:49.578Z,89.38
2023-05-14T13:11:51.550Z,90.18
2023-05-14T13:14:53.434Z,90.84
2023-05-14T13:17:55.634Z,90.96
2023-05-14T13:20:58.909Z,90.38
2023-05-14T13:24:01.129Z,91.52
2023-05-14T13:27:03.087Z,91.61
2023-05-14T13:30:05.771Z,91.53
2023-05-14T13:33:07.809Z,91.46
2023-05-14T13:36:13.370Z,91.14
2023-05-14T13:39:15.521Z,91.07
2023-05-14T13:42:17.387Z,91.74
2023-05-14T13:45:19.388Z,92.13
2023-05-14T13:48:21.430Z,91.48
2023-05-14T13:51:24.718Z,91.96
2023-05-14T13:54:26.646Z,91.83
2023-05-14T13:57:28.598Z,91.67
2023-05-14T14:00:30.557Z,92.63
2023-05-14T14:03:32.408Z,92.68
2023-05-14T14:06:35.944Z,92.39
2023-05-14T14:09:37.900Z,91.63
2023-05-14T14:12:39.904Z,92.67
2023-05-14T14:15:41.850Z,92.67
2023-05-14T14:18:45.280Z,93.14
2023-05-14T14:24:55.882Z,92.15
2023-05-14T14:27:57.938Z,92.84
2023-05-14T14:31:00.134Z,92.59
2023-05-14T14:34:02.124Z,92.73
2023-05-14T14:37:06.953Z,92.85
2023-05-14T14:40:12.182Z,93.25
2023-05-14T14:43:14.138Z,92.85
2023-05-14T14:46:16.243Z,92.91
2023-05-14T14:49:18.186Z,92.72
2023-05-14T14:52:21.602Z,92.63
2023-05-14T14:55:23.701Z,92.82
2023-05-14T14:58:26.183Z,92.59
2023-05-14T15:01:28.253Z,93.57
2023-05-14T15:04:33.352Z,93.49
2023-05-14T15:07:36.798Z,92.55
2023-05-14T15:10:38.900Z,92.83
2023-05-14T15:13:42.004Z,92.11
2023-05-14T15:16:43.988Z,92.33
2023-05-14T15:19:46.081Z,92.12
2023-05-14T15:22:52.356Z,91.75
2023-05-14T15:25:54.302Z,93.02
2023-05-14T15:28:56.360Z,93.06
2023-05-14T15:31:58.373Z,92.62
2023-05-14T15:35:01.188Z,93.01
2023-05-14T15:38:08.521Z,92.74
2023-05-14T15:41:10.570Z,92.79
2023-05-14T15:44:12.519Z,92.83
2023-05-14T15:47:14.396Z,92.51
2023-05-14T15:50:16.266Z,91.97
2023-05-14T15:53:21.984Z,93.20
2023-05-14T15:56:23.685Z,92.66
2023-05-14T15:59:25.691Z,92.48
2023-05-14T16:02:33.365Z,93.59
2023-05-14T16:05:35.485Z,92.85
2023-05-14T16:08:38.942Z,93.58
2023-05-14T16:11:40.819Z,93.21
2023-05-14T16:14:42.707Z,93.23
2023-05-14T16:17:44.811Z,93.39
2023-05-14T16:20:48.905Z,93.55
2023-05-14T16:23:52.227Z,94.36
2023-05-14T16:26:54.304Z,93.10
2023-05-14T16:29:56.156Z,92.95
2023-05-14T16:32:58.063Z,93.26
2023-05-14T16:35:59.987Z,93.50
2023-05-14T16:39:07.407Z,93.48
2023-05-14T16:42:09.871Z,93.46
2023-05-14T16:45:12.185Z,93.01
2023-05-14T16:48:14.097Z,92.45
2023-05-14T16:51:16.075Z,93.40
2023-05-14T16:54:19.441Z,93.18
2023-05-14T16:57:21.402Z,93.59
2023-05-14T17:00:23.474Z,93.67
2023-05-14T17:03:25.461Z,94.34
2023-05-14T17:06:27.489Z,94.38
2023-05-14T17:09:31.359Z,93.50
2023-05-14T17:12:33.263Z,93.57
2023-05-14T17:15:35.446Z,94.74
2023-05-14T17:18:38.213Z,94.97
2023-05-14T17:21:40.281Z,93.92
2023-05-14T17:24:43.741Z,94.69
2023-05-14T17:27:47.599Z,94.17
2023-05-14T17:30:49.507Z,94.13
2023-05-14T17:33:51.576Z,93.69
2023-05-14T17:36:53.586Z,94.56
2023-05-14T17:39:57.009Z,94.42
2023-05-14T17:42:58.906Z,95.30
2023-05-14T17:46:02.171Z,94.87
2023-05-14T17:49:04.070Z,95.16
2023-05-14T17:52:06.795Z,94.90
2023-05-14T17:55:10.139Z,94.78
2023-05-14T17:58:13.510Z,95.04
2023-05-14T18:01:15.513Z,95.25
2023-05-14T18:04:18.736Z,95.81
2023-05-14T18:07:23.080Z,95.51
2023-05-14T18:10:27.873Z,95.30
2023-05-14T18:13:29.919Z,94.61
2023-05-14T18:16:31.958Z,94.42
2023-05-14T18:19:34.327Z,94.61
2023-05-14T18:22:36.671Z,94.87
2023-05-14T18:25:40.029Z,95.18
2023-05-14T18:28:42.057Z,94.44
2023-05-14T18:31:44.156Z,94.52
2023-05-14T18:34:46.083Z,95.09
2023-05-14T18:37:49.009Z,93.69
2023-05-14T18:40:52.405Z,94.55
2023-05-14T18:43:54.672Z,94.74
2023-05-14T18:46:57.052Z,94.08
2023-05-14T18:50:01.869Z,94.20
2023-05-14T18:53:04.506Z,94.19
2023-05-14T18:56:09.330Z,94.05
2023-05-14T18:59:11.977Z,93.80
2023-05-14T19:02:16.817Z,93.61
2023-05-14T19:05:19.889Z,94.22
2023-05-14T19:08:22.415Z,94.21
2023-05-14T19:11:26.664Z,94.00
2023-05-14T19:14:31.342Z,93.80
2023-05-14T19:17:34.205Z,94.04
2023-05-14T19:20:36.644Z,93.95
2023-05-14T19:23:39.814Z,94.49
2023-05-14T19:26:43.367Z,95.02
2023-05-14T19:29:46.966Z,95.35
2023-05-14T19:32:49.640Z,95.14
2023-05-14T19:35:52.334Z,95.89
2023-05-14T19:38:54.772Z,95.17
2023-05-14T19:41:58.149Z,95.52
2023-05-14T19:45:00.176Z,95.97
2023-05-14T19:48:02.546Z,95.21
2023-05-14T19:51:04.491Z,95.74
2023-05-14T19:54:06.952Z,95.88
2023-05-14T19:57:11.212Z,95.58
2023-05-14T20:00:14.504Z,95.96
2023-05-14T20:03:16.541Z,96.05
2023-05-14T20:06:18.842Z,94.17
2023-05-14T20:09:21.319Z,92.57
2023-05-14T20:12:25.195Z,91.58
2023-05-14T20:15:27.380Z,90.79
2023-05-14T20:18:29.514Z,90.46
2023-05-14T20:21:32.178Z,89.54
2023-05-14T20:24:34.105Z,90.98
2023-05-14T20:27:37.545Z,91.62
2023-05-14T20:30:40.346Z,91.42
2023-05-14T20:33:42.358Z,91.42
2023-05-14T20:36:44.545Z,91.75
2023-05-14T20:39:46.859Z,92.04
2023-05-14T20:42:50.531Z,92.13
2023-05-14T20:45:52.483Z,92.44
2023-05-14T20:48:55.123Z,92.95
2023-05-14T20:51:59.316Z,92.67
2023-05-14T20:55:01.970Z,92.79
2023-05-14T20:58:05.791Z,92.60
2023-05-14T21:01:08.219Z,92.83
2023-05-14T21:04:10.726Z,92.28
2023-05-14T21:07:12.787Z,91.89
2023-05-14T21:10:14.697Z,91.74
2023-05-14T21:13:17.966Z,91.98
2023-05-14T21:16:20.296Z,92.61
2023-05-14T21:19:22.866Z,92.79
2023-05-14T21:22:25.136Z,92.77
2023-05-14T21:25:27.300Z,92.33
2023-05-14T21:28:31.424Z,92.22
2023-05-14T21:31:36.096Z,92.21
2023-05-14T21:34:38.278Z,92.23
2023-05-14T21:37:40.648Z,92.40
2023-05-14T21:40:42.722Z,92.46
2023-05-14T21:43:46.148Z,92.32
2023-05-14T21:46:48.249Z,91.89
2023-05-14T21:49:50.128Z,92.59
2023-05-14T21:52:52.027Z,92.46
2023-05-14T21:55:55.403Z,92.52
2023-05-14T21:58:58.717Z,92.37
2023-05-14T22:05:06.159Z,91.40
2023-05-14T22:08:08.053Z,91.48
2023-05-14T22:11:10.022Z,91.52
2023-05-14T22:14:13.551Z,91.93
2023-05-14T22:17:15.430Z,91.27
2023-05-14T22:20:17.534Z,91.56
2023-05-14T22:23:19.382Z,91.85
2023-05-14T22:26:24.434Z,91.70
2023-05-14T22:29:27.937Z,91.82
2023-05-14T22:32:30.060Z,92.13
2023-05-14T22:35:32.105Z,91.78
2023-05-14T22:38:34.286Z,91.98
2023-05-14T22:41:36.509Z,92.36
2023-05-14T22:44:39.766Z,92.37
2023-05-14T22:47:41.684Z,91.49
2023-05-14T22:50:43.798Z,91.72
2023-05-14T22:53:47.191Z,91.77
2023-05-14T22:56:49.268Z,91.43
2023-05-14T22:59:55.140Z,91.58
2023-05-14T23:02:57.116Z,91.64
2023-05-14T23:05:59.233Z,91.47
2023-05-14T23:09:01.214Z,91.60
2023-05-14T23:12:03.210Z,92.21
2023-05-14T23:15:07.403Z,92.13
2023-05-14T23:18:09.471Z,91.86
2023-05-14T23:21:12.375Z,91.57
2023-05-14T23:24:14.274Z,92.19
2023-05-14T23:27:16.329Z,91.30
2023-05-14T23:30:19.805Z,91.60
2023-05-14T23:33:21.692Z,91.37
2023-05-14T23:36:24.182Z,91.24
2023-05-14T23:39:26.291Z,91.76
2023-05-14T23:42:28.313Z,90.33
2023-05-14T23:45:31.724Z,90.61
2023-05-14T23:48:33.579Z,90.73
2023-05-14T23:51:38.168Z,91.09
2023-05-14T23:54:40.027Z,90.41
2023-05-14T23:57:42.011Z,90.34
